createdAt,value
2019-02-12T00:00:48.074Z,101721.10
2019-02-12T00:03:17.090Z,101721.28
2019-02-12T00:05:44.946Z,101723.07
2019-02-12T00:08:12.559Z,101729.06
2019-02-12T00:10:39.971Z,101726.41
2019-02-12T00:13:07.537Z,101736.89
2019-02-12T00:15:34.707Z,101733.68
2019-02-12T00:18:02.046Z,101731.98
2019-02-12T00:20:29.239Z,101728.41
2019-02-12T00:22:56.183Z,101726.89
2019-02-12T00:25:24.112Z,101727.92
2019-02-12T00:27:51.493Z,101724.92
2019-02-12T00:30:18.741Z,101730.06
2019-02-12T00:32:45.985Z,101731.14
2019-02-12T00:35:14.076Z,101728.71
2019-02-12T00:37:41.516Z,101732.81
2019-02-12T00:40:09.117Z,101734.92
2019-02-12T00:42:36.368Z,101733.01
2019-02-12T00:45:04.051Z,101740.95
2019-02-12T00:47:33.048Z,101743.40
2019-02-12T00:49:59.730Z,101751.38
2019-02-12T00:52:26.874Z,101745.53
2019-02-12T00:54:54.692Z,101748.02
2019-02-12T00:57:24.199Z,101741.30
2019-02-12T00:59:52.165Z,101745.37
2019-02-12T01:02:19.504Z,101748.72
2019-02-12T01:04:47.227Z,101744.30
2019-02-12T01:07:13.905Z,101738.44
2019-02-12T01:09:40.874Z,101736.32
2019-02-12T01:12:07.561Z,101746.94
2019-02-12T01:14:34.236Z,101760.95
2019-02-12T01:17:01.524Z,101745.87
2019-02-12T01:19:28.294Z,101761.64
2019-02-12T01:21:55.507Z,101766.25
2019-02-12T01:24:22.554Z,101774.52
2019-02-12T01:26:50.386Z,101780.69
2019-02-12T01:29:17.170Z,101785.11
2019-02-12T01:31:44.639Z,101800.16
2019-02-12T01:34:12.490Z,101789.14
2019-02-12T01:36:39.727Z,101782.22
2019-02-12T01:39:10.686Z,101775.30
2019-02-12T01:41:37.382Z,101780.06
2019-02-12T01:44:04.790Z,101792.62
2019-02-12T01:46:31.839Z,101805.19
2019-02-12T01:48:58.998Z,101800.38
2019-02-12T01:51:25.668Z,101799.86
2019-02-12T01:53:53.696Z,101794.09
2019-02-12T01:56:20.940Z,101792.75
2019-02-12T01:58:47.625Z,101796.09
2019-02-12T02:01:15.155Z,101810.90
2019-02-12T02:03:42.939Z,101819.61
2019-02-12T02:06:30.437Z,101810.17
2019-02-12T02:09:38.967Z,101809.97
2019-02-12T02:12:21.846Z,101814.39
2019-02-12T02:14:48.898Z,101816.52
2019-02-12T02:17:15.919Z,101812.94
2019-02-12T02:19:43.129Z,101809.37
2019-02-12T02:22:10.046Z,101797.00
2019-02-12T02:24:36.842Z,101793.60
2019-02-12T02:27:03.611Z,101817.00
2019-02-12T02:29:31.212Z,101814.49
2019-02-12T02:31:57.885Z,101816.64
2019-02-12T02:34:25.605Z,101816.69
2019-02-12T02:36:52.729Z,101816.84
2019-02-12T02:39:19.907Z,101817.72
2019-02-12T02:41:46.605Z,101817.93
2019-02-12T02:44:14.298Z,101816.15
2019-02-12T02:46:41.416Z,101815.84
2019-02-12T02:49:08.623Z,101828.42
2019-02-12T02:51:35.859Z,101826.69
2019-02-12T02:54:03.398Z,101829.87
2019-02-12T02:56:30.094Z,101830.23
2019-02-12T02:58:57.181Z,101840.19
2019-02-12T03:01:24.363Z,101841.40
2019-02-12T03:03:51.263Z,101833.36
2019-02-12T03:06:19.354Z,101842.02
2019-02-12T03:08:46.058Z,101845.55
2019-02-12T03:11:13.565Z,101844.22
2019-02-12T03:13:40.892Z,101834.20
2019-02-12T03:16:07.591Z,101833.54
2019-02-12T03:18:34.717Z,101830.95
2019-02-12T03:21:02.606Z,101829.13
2019-02-12T03:23:29.714Z,101844.20
2019-02-12T03:25:58.303Z,101840.19
2019-02-12T03:28:25.861Z,101833.38
2019-02-12T03:30:52.832Z,101839.59
2019-02-12T03:33:20.295Z,101835.91
2019-02-12T03:35:48.170Z,101840.88
2019-02-12T03:38:15.114Z,101847.41
2019-02-12T03:40:43.069Z,101849.52
2019-02-12T03:43:11.002Z,101842.81
2019-02-12T03:45:38.064Z,101846.90
2019-02-12T03:48:06.355Z,101843.86
2019-02-12T03:50:34.525Z,101850.75
2019-02-12T03:53:01.975Z,101856.83
2019-02-12T03:55:29.026Z,101852.89
2019-02-12T03:57:56.326Z,101859.69
2019-02-12T04:00:23.695Z,101867.09
2019-02-12T04:03:01.286Z,101861.09
2019-02-12T04:05:29.090Z,101862.34
2019-02-12T04:07:56.369Z,101871.89
2019-02-12T04:10:24.094Z,101867.28
2019-02-12T04:12:51.479Z,101868.89
2019-02-12T04:15:19.219Z,101863.07
2019-02-12T04:17:46.378Z,101871.59
2019-02-12T04:20:13.396Z,101869.45
2019-02-12T04:22:40.728Z,101869.87
2019-02-12T04:25:08.332Z,101876.23
2019-02-12T04:27:35.650Z,101878.55
2019-02-12T04:30:03.213Z,101874.63
2019-02-12T04:32:30.406Z,101874.05
2019-02-12T04:34:57.840Z,101873.73
2019-02-12T04:37:24.564Z,101870.04
2019-02-12T04:39:52.155Z,101874.86
2019-02-12T04:42:18.831Z,101879.66
2019-02-12T04:44:45.579Z,101881.06
2019-02-12T04:47:12.652Z,101886.57
2019-02-12T04:49:39.823Z,101881.23
2019-02-12T04:52:08.195Z,101892.93
2019-02-12T04:54:36.092Z,101892.77
2019-02-12T04:57:03.651Z,101890.85
2019-02-12T04:59:30.984Z,101899.17
2019-02-12T05:01:58.480Z,101903.94
2019-02-12T05:04:25.727Z,101888.55
2019-02-12T05:06:52.685Z,101896.52
2019-02-12T05:09:21.089Z,101902.87
2019-02-12T05:11:51.624Z,101901.97
2019-02-12T05:14:18.288Z,101908.52
2019-02-12T05:16:45.279Z,101913.68
2019-02-12T05:19:13.014Z,101913.50
2019-02-12T05:21:40.993Z,101905.55
2019-02-12T05:24:08.971Z,101918.28
2019-02-12T05:26:36.621Z,101920.02
2019-02-12T05:29:04.084Z,101920.88
2019-02-12T05:31:31.645Z,101925.16
2019-02-12T05:33:59.195Z,101934.52
2019-02-12T05:36:25.907Z,101927.43
2019-02-12T05:38:54.187Z,101926.78
2019-02-12T05:41:21.884Z,101927.27
2019-02-12T05:43:49.134Z,101935.53
2019-02-12T05:46:16.180Z,101939.09
2019-02-12T05:48:43.103Z,101937.25
2019-02-12T05:51:10.072Z,101939.41
2019-02-12T05:53:37.836Z,101935.10
2019-02-12T05:56:04.978Z,101943.15
2019-02-12T05:58:32.441Z,101950.90
2019-02-12T06:00:59.786Z,101959.37
2019-02-12T06:03:27.549Z,101959.05
2019-02-12T06:05:54.554Z,101967.03
2019-02-12T06:08:21.487Z,101958.48
2019-02-12T06:10:48.615Z,101961.02
2019-02-12T06:13:15.627Z,101965.58
2019-02-12T06:15:42.936Z,101971.78
2019-02-12T06:18:10.544Z,101970.69
2019-02-12T06:20:38.365Z,101969.98
2019-02-12T06:23:05.319Z,101975.68
2019-02-12T06:25:32.708Z,101971.41
2019-02-12T06:28:00.477Z,101975.13
2019-02-12T06:30:27.607Z,101977.99
2019-02-12T06:32:54.643Z,101967.55
2019-02-12T06:35:22.335Z,101980.88
2019-02-12T06:37:49.303Z,101981.02
2019-02-12T06:40:16.011Z,101973.41
2019-02-12T06:42:43.282Z,101984.95
2019-02-12T06:45:11.254Z,101985.30
2019-02-12T06:47:38.571Z,101986.30
2019-02-12T06:50:07.999Z,101994.31
2019-02-12T06:52:35.249Z,102003.50
2019-02-12T06:55:02.134Z,102013.46
2019-02-12T06:57:28.958Z,102008.84
2019-02-12T06:59:56.486Z,102010.46
2019-02-12T07:03:02.070Z,102007.97
2019-02-12T07:05:28.995Z,102021.94
2019-02-12T07:09:00.579Z,102044.83
2019-02-12T07:11:47.146Z,102038.27
2019-02-12T07:14:45.508Z,102040.42
2019-02-12T07:18:06.762Z,102051.39
2019-02-12T07:21:18.377Z,102054.81
2019-02-12T07:24:04.933Z,102051.25
2019-02-12T07:27:12.455Z,102055.33
2019-02-12T07:30:24.571Z,102056.38
2019-02-12T07:33:20.739Z,102069.67
2019-02-12T07:36:14.478Z,102065.98
2019-02-12T07:39:15.024Z,102062.45
2019-02-12T07:42:15.598Z,102064.93
2019-02-12T07:45:29.481Z,102072.54
2019-02-12T07:48:31.251Z,102061.93
2019-02-12T07:51:18.527Z,102085.30
2019-02-12T07:54:23.051Z,102083.17
2019-02-12T07:57:29.546Z,102082.80
2019-02-12T08:00:09.899Z,102088.50
2019-02-12T08:03:20.839Z,102090.80
2019-02-12T08:06:16.953Z,102094.67
2019-02-12T08:09:23.554Z,102100.70
2019-02-12T08:12:29.565Z,102107.93
2019-02-12T08:15:29.896Z,102108.80
2019-02-12T08:18:50.510Z,102116.59
2019-02-12T08:21:30.091Z,102113.40
2019-02-12T08:24:38.442Z,102120.29
2019-02-12T08:27:56.554Z,102124.91
2019-02-12T08:31:21.532Z,102132.13
2019-02-12T08:34:18.909Z,102136.17
2019-02-12T08:37:10.909Z,102149.29
2019-02-12T08:40:19.154Z,102156.88
2019-02-12T08:42:51.016Z,102151.55
2019-02-12T08:45:47.838Z,102156.51
2019-02-12T08:49:00.192Z,102167.83
2019-02-12T08:52:02.653Z,102175.08
2019-02-12T08:55:11.185Z,102176.33
2019-02-12T08:57:59.725Z,102180.19
2019-02-12T09:00:51.998Z,102168.78
2019-02-12T09:03:42.884Z,102166.63
2019-02-12T09:06:40.736Z,102169.76
2019-02-12T09:09:44.506Z,102172.95
2019-02-12T09:12:31.494Z,102176.94
2019-02-12T09:15:22.100Z,102177.28
2019-02-12T09:18:07.810Z,102183.61
2019-02-12T09:21:01.131Z,102185.39
2019-02-12T09:24:16.599Z,102187.13
2019-02-12T09:27:09.684Z,102188.71
2019-02-12T09:30:04.247Z,102193.89
2019-02-12T09:33:09.198Z,102206.15
2019-02-12T09:36:05.702Z,102204.55
2019-02-12T09:39:32.885Z,102207.31
2019-02-12T09:42:48.041Z,102204.23
2019-02-12T09:45:47.058Z,102216.41
2019-02-12T09:48:30.275Z,102218.08
2019-02-12T09:51:38.591Z,102233.33
2019-02-12T09:54:30.368Z,102239.66
2019-02-12T09:57:50.940Z,102243.94
2019-02-12T10:00:42.807Z,102244.01
2019-02-12T10:03:46.740Z,102241.48
2019-02-12T10:07:11.330Z,102257.03
2019-02-12T10:10:13.546Z,102259.93
2019-02-12T10:13:00.030Z,102264.89
2019-02-12T10:15:49.353Z,102275.42
2019-02-12T10:18:57.432Z,102278.39
2019-02-12T10:21:58.450Z,102276.42
2019-02-12T10:24:52.130Z,102279.41
2019-02-12T10:28:00.850Z,102276.17
2019-02-12T10:30:49.388Z,102277.05
2019-02-12T10:33:16.939Z,102276.04
2019-02-12T10:35:43.999Z,102274.04
2019-02-12T10:40:40.252Z,102271.45
2019-02-12T10:43:08.509Z,102273.13
2019-02-12T10:45:35.525Z,102280.42
2019-02-12T10:48:03.241Z,102284.20
2019-02-12T10:50:29.976Z,102284.69
2019-02-12T10:52:57.403Z,102282.64
2019-02-12T10:55:24.418Z,102288.17
2019-02-12T10:57:51.874Z,102283.19
2019-02-12T11:00:19.073Z,102285.02
2019-02-12T11:02:46.314Z,102283.70
2019-02-12T11:05:13.519Z,102278.38
2019-02-12T11:07:40.470Z,102266.94
2019-02-12T11:10:07.364Z,102279.47
2019-02-12T11:12:35.887Z,102274.16
2019-02-12T11:15:03.816Z,102277.36
2019-02-12T11:17:31.465Z,102283.77
2019-02-12T11:19:58.757Z,102283.47
2019-02-12T11:22:25.859Z,102284.22
2019-02-12T11:24:52.767Z,102282.58
2019-02-12T11:27:20.075Z,102286.69
2019-02-12T11:29:46.744Z,102278.38
2019-02-12T11:32:13.423Z,102292.18
2019-02-12T11:34:40.914Z,102293.76
2019-02-12T11:37:07.931Z,102282.25
2019-02-12T11:39:34.859Z,102288.16
2019-02-12T11:42:03.360Z,102279.34
2019-02-12T11:44:30.286Z,102283.69
2019-02-12T11:46:57.897Z,102271.95
2019-02-12T11:49:25.659Z,102283.22
2019-02-12T11:51:52.425Z,102276.98
2019-02-12T11:54:19.353Z,102274.07
2019-02-12T11:56:46.053Z,102278.55
2019-02-12T11:59:12.974Z,102279.52
2019-02-12T12:01:39.926Z,102276.89
2019-02-12T12:04:06.927Z,102283.27
2019-02-12T12:06:33.910Z,102274.13
2019-02-12T12:09:00.851Z,102275.83
2019-02-12T12:11:28.034Z,102279.29
2019-02-12T12:13:55.361Z,102277.53
2019-02-12T12:16:22.472Z,102277.79
2019-02-12T12:18:49.266Z,102283.33
2019-02-12T12:21:16.210Z,102291.76
2019-02-12T12:23:43.789Z,102294.77
2019-02-12T12:26:10.868Z,102296.08
2019-02-12T12:28:38.091Z,102298.95
2019-02-12T12:31:05.767Z,102300.17
2019-02-12T12:33:32.920Z,102301.64
2019-02-12T12:36:00.454Z,102308.42
2019-02-12T12:38:27.458Z,102313.02
2019-02-12T12:41:06.071Z,102303.14
2019-02-12T12:43:34.735Z,102308.02
2019-02-12T12:46:02.094Z,102310.71
2019-02-12T12:48:30.200Z,102309.28
2019-02-12T12:50:57.276Z,102312.38
2019-02-12T12:53:25.375Z,102319.20
2019-02-12T12:55:52.519Z,102322.64
2019-02-12T12:58:20.586Z,102317.27
2019-02-12T13:00:47.372Z,102308.91
2019-02-12T13:03:14.269Z,102312.33
2019-02-12T13:05:41.026Z,102320.36
2019-02-12T13:08:08.766Z,102328.27
2019-02-12T13:10:35.934Z,102320.44
2019-02-12T13:13:04.808Z,102322.07
2019-02-12T13:15:32.856Z,102321.63
2019-02-12T13:18:02.184Z,102314.92
2019-02-12T13:20:29.867Z,102311.41
2019-02-12T13:22:56.539Z,102322.97
2019-02-12T13:25:23.251Z,102335.03
2019-02-12T13:27:50.775Z,102336.64
2019-02-12T13:30:18.041Z,102340.91
2019-02-12T13:32:45.726Z,102339.26
2019-02-12T13:35:13.026Z,102354.20
2019-02-12T13:37:40.627Z,102353.12
2019-02-12T13:40:09.839Z,102358.94
2019-02-12T13:42:37.048Z,102347.94
2019-02-12T13:45:05.826Z,102356.96
2019-02-12T13:47:33.287Z,102359.84
2019-02-12T13:50:00.871Z,102351.94
2019-02-12T13:52:29.017Z,102345.75
2019-02-12T13:54:55.786Z,102357.90
2019-02-12T13:57:23.045Z,102349.27
2019-02-12T13:59:50.322Z,102352.12
2019-02-12T14:02:17.533Z,102356.29
2019-02-12T14:04:44.440Z,102361.00
2019-02-12T14:07:11.934Z,102364.59
2019-02-12T14:09:39.250Z,102344.61
2019-02-12T14:12:06.958Z,102340.33
2019-02-12T14:14:35.114Z,102343.68
2019-02-12T14:17:02.562Z,102336.56
2019-02-12T14:19:29.885Z,102338.27
2019-02-12T14:21:56.538Z,102345.35
2019-02-12T14:24:23.467Z,102354.61
2019-02-12T14:26:50.568Z,102356.66
2019-02-12T14:29:17.502Z,102349.82
2019-02-12T14:31:52.580Z,102357.27
2019-02-12T14:34:13.950Z,102352.63
2019-02-12T14:36:40.748Z,102349.34
2019-02-12T14:39:08.103Z,102355.22
2019-02-12T14:41:35.711Z,102358.31
2019-02-12T14:44:03.367Z,102356.23
2019-02-12T14:46:30.565Z,102360.11
2019-02-12T14:49:00.628Z,102355.95
2019-02-12T14:51:27.782Z,102345.45
2019-02-12T14:54:00.747Z,102344.67
2019-02-12T14:56:33.998Z,102344.84
2019-02-12T14:59:02.832Z,102351.42
2019-02-12T15:01:29.960Z,102353.31
2019-02-12T15:03:57.969Z,102350.45
2019-02-12T15:06:25.426Z,102356.17
2019-02-12T15:09:00.817Z,102360.84
2019-02-12T15:11:35.125Z,102367.05
2019-02-12T15:14:03.910Z,102368.58
2019-02-12T15:16:31.154Z,102372.32
2019-02-12T15:18:57.826Z,102367.51
2019-02-12T15:21:25.397Z,102364.55
2019-02-12T15:23:52.641Z,102368.39
2019-02-12T15:26:19.934Z,102362.66
2019-02-12T15:28:47.320Z,102363.34
2019-02-12T15:31:14.147Z,102365.79
2019-02-12T15:33:40.821Z,102359.81
2019-02-12T15:36:08.329Z,102363.70
2019-02-12T15:38:35.575Z,102364.66
2019-02-12T15:41:02.250Z,102355.20
2019-02-12T15:43:29.473Z,102363.78
2019-02-12T15:45:57.008Z,102359.02
2019-02-12T15:48:23.732Z,102360.81
2019-02-12T15:50:51.011Z,102366.58
2019-02-12T15:53:18.306Z,102363.25
2019-02-12T15:55:51.174Z,102366.91
2019-02-12T15:58:14.754Z,102368.05
2019-02-12T16:00:43.368Z,102366.22
2019-02-12T16:03:10.770Z,102368.20
2019-02-12T16:05:37.900Z,102367.83
2019-02-12T16:08:07.275Z,102367.83
2019-02-12T16:10:34.735Z,102363.87
2019-02-12T16:13:01.956Z,102360.89
2019-02-12T16:15:28.897Z,102362.33
2019-02-12T16:17:55.905Z,102356.13
2019-02-12T16:20:22.582Z,102352.54
2019-02-12T16:22:49.358Z,102351.66
2019-02-12T16:25:16.201Z,102353.16
2019-02-12T16:27:43.164Z,102353.27
2019-02-12T16:30:12.222Z,102358.44
2019-02-12T16:32:39.732Z,102357.09
2019-02-12T16:35:08.137Z,102360.02
2019-02-12T16:37:34.825Z,102367.31
2019-02-12T16:40:01.625Z,102363.61
2019-02-12T16:42:28.617Z,102362.70
2019-02-12T16:44:55.683Z,102360.72
2019-02-12T16:47:23.257Z,102341.66
2019-02-12T16:49:49.914Z,102350.34
2019-02-12T16:52:20.941Z,102363.58
2019-02-12T16:54:45.713Z,102366.22
2019-02-12T16:57:13.659Z,102358.41
2019-02-12T16:59:41.325Z,102352.83
2019-02-12T17:02:08.571Z,102352.95
2019-02-12T17:04:38.380Z,102349.35
2019-02-12T17:07:06.384Z,102343.19
2019-02-12T17:09:34.447Z,102348.00
2019-02-12T17:12:02.000Z,102355.69
2019-02-12T17:14:30.092Z,102353.56
2019-02-12T17:16:57.209Z,102355.66
2019-02-12T17:19:25.011Z,102356.16
2019-02-12T17:21:51.698Z,102357.22
2019-02-12T17:24:19.892Z,102352.05
2019-02-12T17:26:47.103Z,102354.55
2019-02-12T17:29:15.001Z,102347.06
2019-02-12T17:31:43.083Z,102351.66
2019-02-12T17:34:10.754Z,102355.21
2019-02-12T17:36:37.838Z,102348.43
2019-02-12T17:39:05.373Z,102346.48
2019-02-12T17:41:35.046Z,102347.91
2019-02-12T17:44:02.541Z,102353.62
2019-02-12T17:46:29.257Z,102344.98
2019-02-12T17:48:57.030Z,102343.88
2019-02-12T17:51:23.975Z,102342.11
2019-02-12T17:53:51.733Z,102352.23
2019-02-12T17:56:24.684Z,102349.73
2019-02-12T17:58:49.713Z,102356.34
2019-02-12T18:01:16.433Z,102350.84
2019-02-12T18:03:43.345Z,102357.95
2019-02-12T18:06:10.489Z,102362.23
2019-02-12T18:08:37.702Z,102356.70
2019-02-12T18:11:04.577Z,102354.39
2019-02-12T18:13:31.899Z,102348.70
2019-02-12T18:15:58.569Z,102346.03
2019-02-12T18:18:25.291Z,102349.31
2019-02-12T18:20:51.996Z,102347.55
2019-02-12T18:23:19.690Z,102342.21
2019-02-12T18:25:46.405Z,102335.67
2019-02-12T18:28:16.929Z,102343.13
2019-02-12T18:30:45.339Z,102342.09
2019-02-12T18:33:13.062Z,102328.38
2019-02-12T18:35:42.391Z,102323.59
2019-02-12T18:38:10.577Z,102327.29
2019-02-12T18:40:38.239Z,102331.58
2019-02-12T18:43:06.250Z,102328.32
2019-02-12T18:45:33.486Z,102326.41
2019-02-12T18:48:00.926Z,102324.59
2019-02-12T18:50:29.162Z,102320.52
2019-02-12T18:52:56.731Z,102325.50
2019-02-12T18:55:23.434Z,102322.64
2019-02-12T18:57:50.615Z,102319.42
2019-02-12T19:00:17.554Z,102323.67
2019-02-12T19:02:45.214Z,102319.75
2019-02-12T19:05:12.766Z,102309.27
2019-02-12T19:07:40.339Z,102311.55
2019-02-12T19:10:09.741Z,102321.36
2019-02-12T19:12:37.345Z,102308.58
2019-02-12T19:15:05.173Z,102306.05
2019-02-12T19:17:34.025Z,102303.95
2019-02-12T19:20:01.566Z,102306.97
2019-02-12T19:22:29.510Z,102309.27
2019-02-12T19:24:56.937Z,102312.46
2019-02-12T19:27:24.223Z,102317.95
2019-02-12T19:29:51.622Z,102313.70
2019-02-12T19:32:18.305Z,102309.97
2019-02-12T19:34:45.596Z,102312.00
2019-02-12T19:37:13.850Z,102300.52
2019-02-12T19:39:41.612Z,102293.08
2019-02-12T19:42:08.834Z,102298.83
2019-02-12T19:44:35.538Z,102299.41
2019-02-12T19:47:02.868Z,102302.62
2019-02-12T19:49:32.071Z,102305.11
2019-02-12T19:51:59.644Z,102306.36
2019-02-12T19:54:27.476Z,102309.77
2019-02-12T19:56:58.370Z,102303.53
2019-02-12T19:59:25.755Z,102303.93
2019-02-12T20:01:53.531Z,102297.67
2019-02-12T20:04:21.031Z,102296.12
2019-02-12T20:06:48.737Z,102301.62
2019-02-12T20:09:25.162Z,102289.31
2019-02-12T20:11:52.101Z,102284.48
2019-02-12T20:14:20.375Z,102292.33
2019-02-12T20:16:48.494Z,102303.75
2019-02-12T20:19:15.999Z,102300.53
2019-02-12T20:21:42.691Z,102302.80
2019-02-12T20:24:09.625Z,102302.98
2019-02-12T20:26:37.137Z,102305.45
2019-02-12T20:29:05.056Z,102298.89
2019-02-12T20:31:32.035Z,102292.62
2019-02-12T20:33:59.412Z,102296.91
2019-02-12T20:36:26.682Z,102303.69
2019-02-12T20:38:55.085Z,102301.74
2019-02-12T20:41:22.794Z,102298.52
2019-02-12T20:43:49.923Z,102303.84
2019-02-12T20:46:16.849Z,102304.20
2019-02-12T20:48:44.199Z,102305.45
2019-02-12T20:51:11.183Z,102313.10
2019-02-12T20:53:38.390Z,102254.13
2019-02-12T20:56:06.128Z,102311.67
2019-02-12T20:58:34.000Z,102303.29
2019-02-12T21:01:02.233Z,102311.61
2019-02-12T21:03:29.716Z,102311.28
2019-02-12T21:05:57.226Z,102327.98
2019-02-12T21:08:24.670Z,102337.77
2019-02-12T21:10:51.518Z,102332.42
2019-02-12T21:13:19.354Z,102330.81
2019-02-12T21:15:46.490Z,102325.83
2019-02-12T21:18:14.064Z,102319.27
2019-02-12T21:20:42.138Z,102323.34
2019-02-12T21:23:09.064Z,102324.62
2019-02-12T21:25:36.766Z,102312.34
2019-02-12T21:28:04.723Z,102316.62
2019-02-12T21:30:32.173Z,102312.86
2019-02-12T21:32:59.525Z,102320.48
2019-02-12T21:35:26.708Z,102317.30
2019-02-12T21:37:55.386Z,102320.48
2019-02-12T21:40:23.129Z,102321.84
2019-02-12T21:42:50.596Z,102322.25
2019-02-12T21:45:36.245Z,102331.00
2019-02-12T21:48:04.268Z,102320.63
2019-02-12T21:50:31.352Z,102319.50
2019-02-12T21:52:59.378Z,102317.92
2019-02-12T21:55:26.649Z,102318.95
2019-02-12T21:57:54.290Z,102311.37
2019-02-12T22:00:22.526Z,102310.12
2019-02-12T22:02:51.296Z,102318.84
2019-02-12T22:05:18.817Z,102313.83
2019-02-12T22:07:46.471Z,102315.28
2019-02-12T22:10:15.977Z,102315.58
2019-02-12T22:12:44.150Z,102316.68
2019-02-12T22:15:11.494Z,102331.42
2019-02-12T22:17:39.057Z,102330.91
2019-02-12T22:20:07.846Z,102330.02
2019-02-12T22:22:35.377Z,102328.77
2019-02-12T22:25:03.504Z,102317.92
2019-02-12T22:27:39.843Z,102314.73
2019-02-12T22:30:00.723Z,102315.44
2019-02-12T22:32:28.262Z,102325.03
2019-02-12T22:34:54.960Z,102316.86
2019-02-12T22:37:23.177Z,102331.48
2019-02-12T22:39:51.207Z,102336.31
2019-02-12T22:42:19.374Z,102337.59
2019-02-12T22:44:48.429Z,102325.47
2019-02-12T22:47:16.218Z,102328.14
2019-02-12T22:49:44.099Z,102338.63
2019-02-12T22:52:11.671Z,102355.55
2019-02-12T22:54:38.627Z,102346.43
2019-02-12T22:57:05.802Z,102343.94
2019-02-12T22:59:33.096Z,102339.69
2019-02-12T23:02:00.720Z,102341.78
2019-02-12T23:04:28.913Z,102354.61
2019-02-12T23:06:57.082Z,102336.80
2019-02-12T23:09:23.896Z,102343.94
2019-02-12T23:11:51.441Z,102334.48
2019-02-12T23:14:20.341Z,102337.50
2019-02-12T23:16:47.429Z,102330.56
2019-02-12T23:19:14.583Z,102321.84
2019-02-12T23:21:42.245Z,102318.69
2019-02-12T23:24:09.878Z,102324.52
2019-02-12T23:26:38.079Z,102323.46
2019-02-12T23:29:05.641Z,102333.80
2019-02-12T23:31:33.346Z,102325.95
2019-02-12T23:34:00.863Z,102330.39
2019-02-12T23:36:28.135Z,102325.62
2019-02-12T23:38:55.672Z,102326.50
2019-02-12T23:41:23.438Z,102330.39
2019-02-12T23:43:50.381Z,102327.23
2019-02-12T23:46:18.144Z,102334.70
2019-02-12T23:48:44.871Z,102331.33
2019-02-12T23:51:11.586Z,102336.50
2019-02-12T23:53:38.499Z,102328.29
2019-02-12T23:56:06.434Z,102320.48
2019-02-12T23:58:34.010Z,102316.71
